• Join FlightAware (Why Join?)
  • Login
  • US Flag 
03:00PM EST


 

Airport Tracker/Info


-or-


 

Live Flight TrackerFlight Track Log ✈ SCO301 ✈ 22-Apr-2013 ✈ VTBS / BKK - WSSS / SIN

Flight Track Log - Related Links

Times and Time Zones

All times are in EDT time to prevent confusion due to time zone crossing. See the SCO301 flight status page for this flight to view local times or setup timezone preferences in your user account.

Time Position Orientation Groundspeed Altitude Reporting Facility
EDT Latitude Longitude Course Direction KTS MPH feet Rate Location/Type
09:28AM 13.6720 100.7340 195° South 150 173 1,000  Level FlightAware
09:28AM 13.6530 100.7300 192° South 150 173 2,000 1,680 Climbing FlightAware
09:29AM 13.6400 100.7260 197° South 157 181 2,300 840 Climbing FlightAware
09:30AM 13.5930 100.7150 193° South 167 192 3,200 960 Climbing FlightAware
09:30AM 13.5810 100.7300 129° Southeast 189 217 3,600 1,200 Climbing FlightAware
09:30AM 13.5700 100.7370 148° Southeast 208 239 3,800 780 Climbing FlightAware
09:31AM 13.5430 100.7480 158° South 237 273 4,200 960 Climbing FlightAware
09:31AM 13.5050 100.7640 158° South 270 311 4,800 1,500 Climbing FlightAware
09:32AM 13.4770 100.7750 159° South 276 318 5,600 2,160 Climbing FlightAware
09:32AM 13.4370 100.7910 159° South 280 322 6,800 2,280 Climbing FlightAware
09:33AM 13.4150 100.8000 158° South 282 325 7,500 2,160 Climbing FlightAware
09:33AM 13.3750 100.8160 159° South 288 331 8,600 2,040 Climbing FlightAware
09:33AM 13.3520 100.8250 159° South 291 335 9,200 2,040 Climbing FlightAware
09:34AM 13.3120 100.8410 159° South 296 341 10,300 1,560 Climbing FlightAware
09:35AM 13.2460 100.8680 158° South 336 387 11,300 1,800 Climbing FlightAware
09:35AM 13.1870 100.8920 158° South 349 402 13,000 2,520 Climbing FlightAware
09:36AM 13.1350 100.9120 159° South 356 410 14,500 2,460 Climbing FlightAware
09:37AM 13.0460 100.9480 158° South 375 432 16,700 2,340 Climbing FlightAware
09:38AM 12.9560 100.9840 159° South 390 449 18,800 2,400 Climbing FlightAware
09:38AM 12.8920 101.0100 158° South 396 456 20,300 2,040 Climbing FlightAware
09:39AM 12.8100 101.0430 159° South 412 474 21,700 1,800 Climbing FlightAware
09:40AM 12.7430 101.0700 159° South 417 480 23,000 1,920 Climbing FlightAware
09:41AM 12.6630 101.1020 159° South 425 489 24,300 1,800 Climbing FlightAware
09:41AM 12.5990 101.1280 158° South 430 495 25,300 1,740 Climbing FlightAware
09:42AM 12.5110 101.1630 159° South 436 502 26,800 900 Climbing FlightAware
09:43AM 12.4380 101.1930 158° South 436 502 26,800 900 Level FlightAware
09:44AM 12.3280 101.2370 159° South 447 514 28,300 900 Climbing FlightAware
09:44AM 12.2620 101.2640 158° South 447 514 28,300  Level FlightAware
09:45AM 12.1970 101.2910 158° South 447 514 28,300  Level FlightAware
09:46AM 12.1320 101.3180 158° South 447 514 28,300  Level FlightAware
09:47AM 12.0510 101.3520 158° South 447 514 28,300  Level FlightAware
09:47AM 12.0020 101.3720 158° South 447 514 28,300 3,900 Level FlightAware
09:49AM 11.7260 101.4600 163° South 460 529 36,500 3,780 Climbing FlightAware
09:49AM 11.6580 101.4720 170° South 460 529 36,500 1,620 Level FlightAware
09:50AM 11.5450 101.4860 173° South 446 513 38,800 1,620 Climbing FlightAware
09:51AM 11.4810 101.4970 170° South 446 513 38,800 120 Level FlightAware
09:51AM 11.3870 101.5110 172° South 445 512 39,000 120 Climbing FlightAware
09:52AM 11.3150 101.5230 171° South 445 512 39,000  Level FlightAware
09:53AM 11.1840 101.5430 171° South 447 514 39,000  Level FlightAware
09:54AM 11.1010 101.5560 171° South 448 516 39,000  Level FlightAware
09:54AM 11.0310 101.5680 170° South 448 516 39,000  Level FlightAware
09:55AM 10.9200 101.5840 172° South 449 517 39,000  Level FlightAware
09:56AM 10.8510 101.5960 170° South 449 517 39,000  Level FlightAware
09:56AM 10.7810 101.6070 171° South 449 517 39,000  Level FlightAware
09:57AM 10.6690 101.6240 172° South 451 519 39,000  Level FlightAware
09:58AM 10.5990 101.6350 171° South 451 519 39,000  Level FlightAware
09:59AM 10.5110 101.6490 171° South 451 519 39,000  Level FlightAware
09:59AM 10.4410 101.6600 171° South 451 519 39,000  Level FlightAware
10:00AM 10.3710 101.6720 170° South 451 519 39,000  Level FlightAware
10:01AM 10.3010 101.6830 171° South 451 519 39,000  Level FlightAware
10:01AM 10.2310 101.6940 171° South 451 519 39,000  Level FlightAware
10:02AM 10.1430 101.7080 171° South 451 519 39,000  Level FlightAware
10:03AM 10.0730 101.7190 171° South 451 519 39,000  Level FlightAware
10:03AM 10.0030 101.7310 170° South 451 519 39,000  Level FlightAware
10:04AM 9.9330 101.7420 171° South 451 519 39,000  Level FlightAware
10:05AM 9.8630 101.7530 171° South 451 519 39,000  Level FlightAware
10:06AM 9.7750 101.7670 171° South 451 519 39,000  Level FlightAware
10:06AM 9.7050 101.7790 170° South 451 519 39,000  Level FlightAware
10:09AM 9.4810 101.8393 165° South  Level Estimated
10:10AM 9.3799 101.8665 165° South  Level Estimated
10:11AM 9.2788 101.8937 165° South  Level Estimated
10:12AM 9.1778 101.9208 165° South  Level Estimated
10:13AM 9.0767 101.9479 165° South  Level Estimated
10:14AM 8.9756 101.9751 165° South  Level Estimated
10:15AM 8.8745 102.0022 165° South  Level Estimated
10:16AM 8.7735 102.0293 165° South  Level Estimated
10:17AM 8.6724 102.0563 165° South  Level Estimated
10:18AM 8.5713 102.0834 165° South  Level Estimated
10:19AM 8.4702 102.1104 165° South  Level Estimated
10:20AM 8.3691 102.1375 165° South  Level Estimated
10:21AM 8.2681 102.1645 165° South  Level Estimated
10:22AM 8.1670 102.1915 165° South  Level Estimated
10:23AM 8.0659 102.2185 165° South  Level Estimated
10:23AM 7.3810 102.1290 165° South 454 522 39,000  Level FlightAware
10:24AM 7.3060 102.1410 171° South 454 522 39,000  Level FlightAware
10:25AM 7.2360 102.1520 171° South 454 522 39,000  Level FlightAware
10:25AM 7.1650 102.1630 171° South 454 522 39,000  Level FlightAware
10:26AM 7.0370 102.1810 172° South 455 524 39,000  Level FlightAware
10:27AM 6.9380 102.1970 171° South 455 524 39,000  Level FlightAware
10:28AM 6.8500 102.2100 172° South 456 525 39,000  Level FlightAware
10:28AM 6.7570 102.2240 171° South 456 525 39,000  Level FlightAware
10:29AM 6.6760 102.2360 172° South 457 526 39,000  Level FlightAware
10:30AM 6.5940 102.2490 171° South 457 526 39,000  Level FlightAware
10:30AM 6.5050 102.2620 172° South 458 527 39,000  Level FlightAware
10:31AM 6.4250 102.2750 171° South 458 527 39,000  Level FlightAware
10:32AM 6.3160 102.2910 172° South 459 528 39,000  Level FlightAware
10:32AM 6.2380 102.3030 171° South 460 529 39,000  Level FlightAware
10:33AM 6.1470 102.3220 168° South 458 527 39,000  Level FlightAware
10:34AM 6.0620 102.3540 159° South 455 524 39,000  Level FlightAware
10:35AM 5.9860 102.3850 158° South 453 521 39,000  Level FlightAware
10:35AM 5.9040 102.4180 158° South 451 519 39,000  Level FlightAware
10:36AM 5.8260 102.4490 158° South 450 518 39,000  Level FlightAware
10:37AM 5.7160 102.4930 158° South 447 514 39,000  Level FlightAware
10:38AM 5.6060 102.5370 158° South 445 512 39,000  Level FlightAware
10:39AM 5.5210 102.5710 158° South 444 511 39,000  Level FlightAware
10:39AM 5.4590 102.5960 158° South 443 510 39,000  Level FlightAware
10:40AM 5.3550 102.6380 158° South 443 510 39,000  Level FlightAware
10:41AM 5.2870 102.6650 158° South 442 509 39,000  Level FlightAware
10:41AM 5.2140 102.6940 158° South 443 510 39,000  Level FlightAware
10:42AM 5.1300 102.7280 158° South 443 510 39,000  Level FlightAware
10:43AM 5.0550 102.7580 158° South 446 513 39,000  Level FlightAware
10:43AM 4.9660 102.7930 159° South 447 514 39,000  Level FlightAware
10:44AM 4.8470 102.8410 158° South 449 517 39,000  Level FlightAware
10:45AM 4.7710 102.8710 159° South 449 517 39,000  Level FlightAware
10:46AM 4.6930 102.9020 158° South 449 517 39,000  Level FlightAware
10:46AM 4.6120 102.9340 159° South 449 517 39,000  Level FlightAware
10:47AM 4.5300 102.9670 158° South 450 518 39,000  Level FlightAware
10:48AM 4.4420 103.0020 158° South 449 517 39,000  Level FlightAware
10:49AM 4.3630 103.0330 159° South 449 517 39,000  Level FlightAware
10:49AM 4.2770 103.0680 158° South 449 517 39,000  Level FlightAware
10:50AM 4.2040 103.0970 158° South 450 518 39,000  Level FlightAware
10:51AM 4.1140 103.1320 159° South 451 519 39,000  Level FlightAware
10:52AM 4.0070 103.1750 158° South 452 520 39,000  Level FlightAware
10:53AM 3.9150 103.2120 158° South 453 521 39,000  Level FlightAware
10:53AM 3.8440 103.2400 159° South 454 522 39,000  Level FlightAware
10:54AM 3.7500 103.2770 159° South 454 522 39,000  Level FlightAware
10:55AM 3.6700 103.3100 158° South 454 522 39,000  Level FlightAware
10:55AM 3.6040 103.3360 159° South 454 522 39,000  Level FlightAware
10:56AM 3.5210 103.3700 158° South 454 522 39,000  Level FlightAware
10:57AM 3.4050 103.4150 159° South 456 525 39,000  Level FlightAware
10:57AM 3.3280 103.4470 157° South 457 526 39,000 -1,020 Level FlightAware
10:58AM 3.2470 103.4910 152° Southeast 456 525 37,600 -2,400 Descending FlightAware
10:59AM 3.1780 103.5460 141° Southeast 459 528 35,600 -2,580 Descending FlightAware
10:59AM 3.1220 103.5930 140° Southeast 462 532 34,400 -1,920 Descending FlightAware
11:00AM 3.0550 103.6490 140° Southeast 454 522 32,900 -2,280 Descending FlightAware
11:01AM 2.9980 103.6970 140° Southeast 455 524 31,200 -2,580 Descending FlightAware
11:01AM 2.9360 103.7480 141° Southeast 453 521 29,700 -2,160 Descending FlightAware
11:02AM 2.8700 103.8030 140° Southeast 445 512 28,200 -1,920 Descending FlightAware
11:03AM 2.7570 103.8970 140° Southeast 438 504 26,400 -2,460 Descending FlightAware
11:04AM 2.6820 103.9590 140° Southeast 428 493 23,900 -2,040 Descending FlightAware
11:05AM 2.6030 104.0230 141° Southeast 425 489 23,000 -1,260 Descending FlightAware
11:06AM 2.5080 104.0360 172° South 410 472 21,800 -1,380 Descending FlightAware
11:06AM 2.4340 104.0450 173° South 404 465 21,100 -1,080 Descending FlightAware
11:07AM 2.3590 104.0550 172° South 399 459 20,400 -1,080 Descending FlightAware
11:08AM 2.2760 104.0660 172° South 391 450 19,600 -1,140 Descending FlightAware
11:08AM 2.2030 104.0760 172° South 404 465 18,800 -1,080 Descending FlightAware
11:09AM 2.1190 104.0870 173° South 417 480 18,100 -1,320 Descending FlightAware
11:10AM 2.0420 104.0980 172° South 403 464 17,000 -1,860 Descending FlightAware
11:11AM 1.9610 104.1050 175° South 394 453 15,500 -2,100 Descending FlightAware
11:11AM 1.8880 104.1060 179° South 385 443 14,100 -2,040 Descending FlightAware
11:12AM 1.8250 104.1060 180° South 376 433 13,000 -2,100 Descending FlightAware
11:13AM 1.7380 104.1060 180° South 368 423 11,200 -1,620 Descending FlightAware
11:13AM 1.6730 104.1060 180° South 339 390 10,600 -660 Descending FlightAware
11:14AM 1.6070 104.1080 178° South 304 350 10,300 -600 Descending FlightAware
11:15AM 1.5540 104.1160 171° South 283 326 9,800 -1,320 Descending FlightAware
11:15AM 1.5130 104.1220 172° South 296 341 8,800 -1,860 Descending FlightAware
11:16AM 1.4780 104.1270 172° South 294 338 8,100 -1,440 Descending FlightAware
11:16AM 1.4390 104.1220 187° South 286 329 7,500 -1,140 Descending FlightAware
11:17AM 1.4020 104.1070 202° Southwest 284 327 7,000 -1,020 Descending FlightAware
11:17AM 1.3720 104.0940 203° Southwest 282 325 6,600 -780 Descending FlightAware
11:18AM 1.3380 104.0790 204° Southwest 267 307 6,300 -540 Descending FlightAware
11:18AM 1.3040 104.0650 202° Southwest 254 292 6,100 -660 Descending FlightAware
11:18AM 1.2760 104.0530 203° Southwest 245 282 5,700 -1,140 Descending FlightAware
11:19AM 1.2470 104.0350 212° Southwest 245 282 5,100 -1,020 Descending FlightAware
11:19AM 1.2270 104.0180 220° Southwest 240 276 4,800 -780 Descending FlightAware
11:20AM 1.2140 104.0070 220° Southwest 233 268 4,600 -840 Descending FlightAware
11:20AM 1.1890 103.9850 221° Southwest 228 262 4,200 -840 Descending FlightAware
11:20AM 1.1780 103.9760 219° Southwest 226 260 4,000 -960 Descending FlightAware
11:21AM 1.1720 103.9680 233° Southwest 225 259 3,800 -960 Descending FlightAware
11:21AM 1.1680 103.9540 254° West 222 255 3,600 -720 Descending FlightAware
11:21AM 1.1860 103.9300 307° West 207 238 3,300 -720 Descending FlightAware
11:22AM 1.1990 103.9270 347° North 201 231 3,100 -720 Descending FlightAware
11:22AM 1.2160 103.9240 350° North 195 224 2,900 -900 Descending FlightAware
11:22AM 1.2340 103.9290 16° North 191 220 2,500 -1,080 Descending FlightAware
11:23AM 1.2580 103.9390 23° Northeast 189 217 2,000 -1,140 Descending FlightAware
11:23AM 1.2780 103.9470 22° Northeast 165 190 1,500 -1,080 Descending FlightAware
11:23AM 1.2870 103.9510 24° Northeast 144 166 1,300 -720 Descending FlightAware
11:24AM 1.3050 103.9590 24° Northeast 138 159 1,000 -660 Descending FlightAware
11:24AM 1.3200 103.9650 22° Northeast 138 159 700 -780 Descending FlightAware
11:25AM 1.3390 103.9730 23° Northeast 138 159 300 -600 Descending FlightAware
11:25AM 1.3480 103.9770 24° Northeast 138 159 200 -300 Descending FlightAware
11:28AM 1.3557 103.9875 145° Southeast  Level Estimated